sensor_id;sensor_type;location;lat;lon;timestamp;pressure;altitude;pressure_sealevel;temperature;humidity
7026;BME280;3554;42.132;24.786;2023-08-12T00:01:15;99638.63;;;23.33;100.00
7026;BME280;3554;42.132;24.786;2023-08-12T00:03:42;99642.13;;;23.34;100.00
7026;BME280;3554;42.132;24.786;2023-08-12T00:06:09;99640.16;;;23.36;100.00
7026;BME280;3554;42.132;24.786;2023-08-12T00:08:35;99646.41;;;23.46;100.00
7026;BME280;3554;42.132;24.786;2023-08-12T00:11:04;99644.97;;;23.42;100.00
7026;BME280;3554;42.132;24.786;2023-08-12T00:13:30;99633.53;;;23.30;100.00
7026;BME280;3554;42.132;24.786;2023-08-12T00:15:57;99626.03;;;23.24;100.00
7026;BME280;3554;42.132;24.786;2023-08-12T00:18:24;99646.78;;;23.11;100.00
7026;BME280;3554;42.132;24.786;2023-08-12T00:20:51;99636.72;;;23.24;100.00
7026;BME280;3554;42.132;24.786;2023-08-12T00:23:18;99635.88;;;23.24;100.00
7026;BME280;3554;42.132;24.786;2023-08-12T00:25:44;99636.97;;;23.21;100.00
7026;BME280;3554;42.132;24.786;2023-08-12T00:28:12;99643.03;;;23.14;100.00
7026;BME280;3554;42.132;24.786;2023-08-12T00:30:39;99627.81;;;23.05;100.00
7026;BME280;3554;42.132;24.786;2023-08-12T00:33:06;99617.88;;;22.86;100.00
7026;BME280;3554;42.132;24.786;2023-08-12T00:35:33;99636.16;;;22.91;100.00
7026;BME280;3554;42.132;24.786;2023-08-12T00:38:00;99635.63;;;22.97;100.00
7026;BME280;3554;42.132;24.786;2023-08-12T00:40:26;99631.50;;;22.83;100.00
7026;BME280;3554;42.132;24.786;2023-08-12T00:42:53;99634.31;;;22.61;100.00
7026;BME280;3554;42.132;24.786;2023-08-12T00:45:21;99638.56;;;22.53;100.00
7026;BME280;3554;42.132;24.786;2023-08-12T00:47:48;99629.97;;;22.60;100.00
7026;BME280;3554;42.132;24.786;2023-08-12T00:50:15;99633.72;;;22.58;100.00
7026;BME280;3554;42.132;24.786;2023-08-12T00:52:42;99624.47;;;22.62;100.00
7026;BME280;3554;42.132;24.786;2023-08-12T00:55:09;99629.41;;;22.66;100.00
7026;BME280;3554;42.132;24.786;2023-08-12T00:57:37;99626.66;;;22.77;100.00
7026;BME280;3554;42.132;24.786;2023-08-12T01:00:05;99619.91;;;22.73;100.00
7026;BME280;3554;42.132;24.786;2023-08-12T01:02:33;99614.03;;;22.79;100.00
7026;BME280;3554;42.132;24.786;2023-08-12T01:05:00;99626.97;;;22.84;100.00
7026;BME280;3554;42.132;24.786;2023-08-12T01:07:27;99624.50;;;22.92;100.00
7026;BME280;3554;42.132;24.786;2023-08-12T01:09:53;99630.69;;;22.92;100.00
7026;BME280;3554;42.132;24.786;2023-08-12T01:12:24;99628.31;;;22.69;100.00
7026;BME280;3554;42.132;24.786;2023-08-12T01:14:58;99635.53;;;22.78;100.00
7026;BME280;3554;42.132;24.786;2023-08-12T01:17:29;99639.50;;;22.83;100.00
7026;BME280;3554;42.132;24.786;2023-08-12T01:19:59;99613.03;;;22.80;100.00
7026;BME280;3554;42.132;24.786;2023-08-12T01:22:30;99630.28;;;22.97;100.00
7026;BME280;3554;42.132;24.786;2023-08-12T01:25:00;99625.28;;;22.83;100.00
7026;BME280;3554;42.132;24.786;2023-08-12T01:27:27;99625.72;;;22.78;100.00
7026;BME280;3554;42.132;24.786;2023-08-12T01:29:53;99596.69;;;22.64;100.00
7026;BME280;3554;42.132;24.786;2023-08-12T01:32:24;99634.53;;;22.79;100.00
7026;BME280;3554;42.132;24.786;2023-08-12T01:35:01;99631.50;;;22.83;100.00
7026;BME280;3554;42.132;24.786;2023-08-12T01:37:30;99632.44;;;22.82;100.00
7026;BME280;3554;42.132;24.786;2023-08-12T01:40:03;99627.25;;;22.81;100.00
7026;BME280;3554;42.132;24.786;2023-08-12T01:42:32;99628.38;;;22.78;100.00
7026;BME280;3554;42.132;24.786;2023-08-12T01:44:59;99624.50;;;22.51;100.00
7026;BME280;3554;42.132;24.786;2023-08-12T01:47:27;99619.59;;;22.46;100.00
7026;BME280;3554;42.132;24.786;2023-08-12T01:49:54;99622.91;;;22.39;100.00
7026;BME280;3554;42.132;24.786;2023-08-12T01:52:21;99618.47;;;22.28;100.00
7026;BME280;3554;42.132;24.786;2023-08-12T01:54:48;99623.34;;;22.23;100.00
7026;BME280;3554;42.132;24.786;2023-08-12T01:57:16;99616.81;;;21.95;100.00
7026;BME280;3554;42.132;24.786;2023-08-12T01:59:43;99617.78;;;21.94;100.00
7026;BME280;3554;42.132;24.786;2023-08-12T02:02:10;99621.22;;;21.74;100.00
7026;BME280;3554;42.132;24.786;2023-08-12T02:04:37;99610.22;;;21.68;100.00
7026;BME280;3554;42.132;24.786;2023-08-12T02:07:04;99627.50;;;21.84;100.00
7026;BME280;3554;42.132;24.786;2023-08-12T02:09:31;99597.84;;;21.67;100.00
7026;BME280;3554;42.132;24.786;2023-08-12T02:11:58;99624.09;;;21.93;100.00
7026;BME280;3554;42.132;24.786;2023-08-12T02:14:26;99614.84;;;21.97;100.00
7026;BME280;3554;42.132;24.786;2023-08-12T02:16:53;99615.50;;;21.90;100.00
7026;BME280;3554;42.132;24.786;2023-08-12T02:19:19;99615.28;;;21.71;100.00
7026;BME280;3554;42.132;24.786;2023-08-12T02:21:46;99618.34;;;21.66;100.00
7026;BME280;3554;42.132;24.786;2023-08-12T02:24:13;99618.09;;;21.69;100.00
7026;BME280;3554;42.132;24.786;2023-08-12T02:26:40;99626.09;;;21.58;100.00
7026;BME280;3554;42.132;24.786;2023-08-12T02:29:07;99632.38;;;21.68;100.00
7026;BME280;3554;42.132;24.786;2023-08-12T02:31:35;99633.69;;;21.74;100.00
7026;BME280;3554;42.132;24.786;2023-08-12T02:34:02;99631.53;;;21.79;100.00
7026;BME280;3554;42.132;24.786;2023-08-12T02:36:29;99636.47;;;21.72;100.00
7026;BME280;3554;42.132;24.786;2023-08-12T02:38:55;99629.09;;;21.65;100.00
7026;BME280;3554;42.132;24.786;2023-08-12T02:41:22;99636.94;;;21.77;100.00
7026;BME280;3554;42.132;24.786;2023-08-12T02:43:49;99639.75;;;21.87;100.00
7026;BME280;3554;42.132;24.786;2023-08-12T02:46:16;99644.69;;;21.91;100.00
7026;BME280;3554;42.132;24.786;2023-08-12T02:48:45;99636.59;;;21.93;100.00
7026;BME280;3554;42.132;24.786;2023-08-12T02:51:12;99644.59;;;21.93;100.00
7026;BME280;3554;42.132;24.786;2023-08-12T02:53:39;99641.94;;;21.82;100.00
7026;BME280;3554;42.132;24.786;2023-08-12T02:56:06;99633.38;;;21.56;100.00
7026;BME280;3554;42.132;24.786;2023-08-12T02:58:33;99645.47;;;21.60;100.00
7026;BME280;3554;42.132;24.786;2023-08-12T03:01:00;99646.69;;;21.56;100.00
7026;BME280;3554;42.132;24.786;2023-08-12T03:03:29;99643.41;;;21.64;100.00
7026;BME280;3554;42.132;24.786;2023-08-12T03:05:57;99649.22;;;21.69;100.00
7026;BME280;3554;42.132;24.786;2023-08-12T03:08:24;99649.47;;;21.66;100.00
7026;BME280;3554;42.132;24.786;2023-08-12T03:10:58;99650.69;;;21.51;100.00
7026;BME280;3554;42.132;24.786;2023-08-12T03:13:25;99641.50;;;21.55;100.00
7026;BME280;3554;42.132;24.786;2023-08-12T03:15:51;99645.34;;;21.62;100.00
7026;BME280;3554;42.132;24.786;2023-08-12T03:18:18;99606.66;;;21.36;100.00
7026;BME280;3554;42.132;24.786;2023-08-12T03:20:45;99649.22;;;21.58;100.00
7026;BME280;3554;42.132;24.786;2023-08-12T03:23:14;99642.94;;;21.59;100.00
7026;BME280;3554;42.132;24.786;2023-08-12T03:25:41;99640.63;;;21.54;100.00
7026;BME280;3554;42.132;24.786;2023-08-12T03:28:08;99647.56;;;21.46;100.00
7026;BME280;3554;42.132;24.786;2023-08-12T03:30:35;99642.56;;;21.52;100.00
7026;BME280;3554;42.132;24.786;2023-08-12T03:33:02;99635.69;;;21.50;100.00
7026;BME280;3554;42.132;24.786;2023-08-12T03:35:29;99650.34;;;21.55;100.00
7026;BME280;3554;42.132;24.786;2023-08-12T03:37:56;99653.13;;;21.54;100.00
7026;BME280;3554;42.132;24.786;2023-08-12T03:40:24;99656.88;;;21.62;100.00
7026;BME280;3554;42.132;24.786;2023-08-12T03:42:51;99662.28;;;21.72;100.00
7026;BME280;3554;42.132;24.786;2023-08-12T03:45:18;99662.03;;;21.75;100.00
7026;BME280;3554;42.132;24.786;2023-08-12T03:47:45;99652.25;;;21.64;100.00
7026;BME280;3554;42.132;24.786;2023-08-12T03:50:12;99661.78;;;21.78;100.00
7026;BME280;3554;42.132;24.786;2023-08-12T03:52:38;99664.13;;;21.82;100.00
7026;BME280;3554;42.132;24.786;2023-08-12T03:55:06;99675.97;;;21.89;100.00
7026;BME280;3554;42.132;24.786;2023-08-12T03:57:35;99677.38;;;22.04;100.00
7026;BME280;3554;42.132;24.786;2023-08-12T04:00:02;99677.47;;;22.14;100.00
7026;BME280;3554;42.132;24.786;2023-08-12T04:02:29;99674.75;;;22.25;100.00
7026;BME280;3554;42.132;24.786;2023-08-12T04:04:56;99674.03;;;22.23;100.00
7026;BME280;3554;42.132;24.786;2023-08-12T04:07:23;99668.28;;;22.07;100.00
7026;BME280;3554;42.132;24.786;2023-08-12T04:09:50;99680.34;;;22.11;100.00
7026;BME280;3554;42.132;24.786;2023-08-12T04:12:17;99672.31;;;22.22;100.00
7026;BME280;3554;42.132;24.786;2023-08-12T04:14:45;99682.22;;;22.10;100.00
7026;BME280;3554;42.132;24.786;2023-08-12T04:17:11;99673.63;;;22.07;100.00
7026;BME280;3554;42.132;24.786;2023-08-12T04:19:38;99681.75;;;22.05;100.00
7026;BME280;3554;42.132;24.786;2023-08-12T04:22:05;99678.69;;;22.10;100.00
7026;BME280;3554;42.132;24.786;2023-08-12T04:24:32;99686.94;;;22.07;100.00
7026;BME280;3554;42.132;24.786;2023-08-12T04:26:58;99695.19;;;22.04;100.00
7026;BME280;3554;42.132;24.786;2023-08-12T04:29:25;99684.75;;;22.12;100.00
7026;BME280;3554;42.132;24.786;2023-08-12T04:31:53;99686.66;;;22.21;100.00
7026;BME280;3554;42.132;24.786;2023-08-12T04:34:20;99679.97;;;22.26;100.00
7026;BME280;3554;42.132;24.786;2023-08-12T04:36:47;99685.75;;;22.31;100.00
7026;BME280;3554;42.132;24.786;2023-08-12T04:39:13;99691.94;;;22.32;100.00
7026;BME280;3554;42.132;24.786;2023-08-12T04:41:40;99687.97;;;22.26;100.00
7026;BME280;3554;42.132;24.786;2023-08-12T04:44:07;99680.34;;;22.11;100.00
7026;BME280;3554;42.132;24.786;2023-08-12T04:46:34;99693.97;;;21.97;100.00
7026;BME280;3554;42.132;24.786;2023-08-12T04:49:02;99685.78;;;21.89;100.00
7026;BME280;3554;42.132;24.786;2023-08-12T04:51:29;99676.72;;;21.69;100.00
7026;BME280;3554;42.132;24.786;2023-08-12T04:53:56;99681.19;;;21.58;100.00
7026;BME280;3554;42.132;24.786;2023-08-12T04:56:23;99572.59;;;21.07;100.00
7026;BME280;3554;42.132;24.786;2023-08-12T04:58:50;99693.44;;;21.71;100.00
7026;BME280;3554;42.132;24.786;2023-08-12T05:01:17;99686.28;;;21.83;100.00
7026;BME280;3554;42.132;24.786;2023-08-12T05:03:44;99691.59;;;21.83;100.00
7026;BME280;3554;42.132;24.786;2023-08-12T05:06:12;99691.59;;;21.94;100.00
7026;BME280;3554;42.132;24.786;2023-08-12T05:08:39;99690.25;;;21.88;100.00
7026;BME280;3554;42.132;24.786;2023-08-12T05:11:05;99693.41;;;21.93;100.00
7026;BME280;3554;42.132;24.786;2023-08-12T05:13:33;99692.78;;;21.90;100.00
7026;BME280;3554;42.132;24.786;2023-08-12T05:15:59;99691.81;;;22.02;100.00
7026;BME280;3554;42.132;24.786;2023-08-12T05:18:26;99690.50;;;21.96;100.00
7026;BME280;3554;42.132;24.786;2023-08-12T05:20:54;99692.91;;;21.99;100.00
7026;BME280;3554;42.132;24.786;2023-08-12T05:23:23;99688.44;;;21.89;100.00
7026;BME280;3554;42.132;24.786;2023-08-12T05:25:50;99684.59;;;21.82;100.00
7026;BME280;3554;42.132;24.786;2023-08-12T05:28:17;99696.13;;;21.82;100.00
7026;BME280;3554;42.132;24.786;2023-08-12T05:30:44;99700.06;;;21.88;100.00
7026;BME280;3554;42.132;24.786;2023-08-12T05:33:11;99700.06;;;21.88;100.00
7026;BME280;3554;42.132;24.786;2023-08-12T05:35:38;99697.41;;;21.88;100.00
7026;BME280;3554;42.132;24.786;2023-08-12T05:38:05;99692.34;;;21.85;100.00
7026;BME280;3554;42.132;24.786;2023-08-12T05:40:33;99685.53;;;21.81;100.00
7026;BME280;3554;42.132;24.786;2023-08-12T05:42:59;99693.06;;;21.87;100.00
7026;BME280;3554;42.132;24.786;2023-08-12T05:45:26;99687.00;;;21.85;100.00
7026;BME280;3554;42.132;24.786;2023-08-12T05:47:53;99684.34;;;21.85;100.00
7026;BME280;3554;42.132;24.786;2023-08-12T05:50:20;99700.28;;;22.07;100.00
7026;BME280;3554;42.132;24.786;2023-08-12T05:52:47;99691.03;;;22.11;100.00
7026;BME280;3554;42.132;24.786;2023-08-12T05:55:14;99697.94;;;22.13;100.00
7026;BME280;3554;42.132;24.786;2023-08-12T05:57:42;99694.50;;;22.22;100.00
7026;BME280;3554;42.132;24.786;2023-08-12T06:00:09;99684.34;;;22.16;100.00
7026;BME280;3554;42.132;24.786;2023-08-12T06:02:36;99686.69;;;22.30;100.00
7026;BME280;3554;42.132;24.786;2023-08-12T06:05:03;99684.53;;;22.36;100.00
7026;BME280;3554;42.132;24.786;2023-08-12T06:07:30;99685.81;;;22.41;100.00
7026;BME280;3554;42.132;24.786;2023-08-12T06:09:57;99681.19;;;22.43;100.00
7026;BME280;3554;42.132;24.786;2023-08-12T06:12:24;99676.03;;;22.62;100.00
7026;BME280;3554;42.132;24.786;2023-08-12T06:14:52;99652.78;;;22.74;100.00
7026;BME280;3554;42.132;24.786;2023-08-12T06:17:19;99678.53;;;23.05;100.00
7026;BME280;3554;42.132;24.786;2023-08-12T06:19:46;99670.56;;;23.14;100.00
7026;BME280;3554;42.132;24.786;2023-08-12T06:22:12;99677.06;;;23.21;100.00
7026;BME280;3554;42.132;24.786;2023-08-12T06:24:39;99676.47;;;23.39;100.00
7026;BME280;3554;42.132;24.786;2023-08-12T06:27:06;99676.94;;;23.53;100.00
7026;BME280;3554;42.132;24.786;2023-08-12T06:29:33;99683.03;;;23.74;100.00
7026;BME280;3554;42.132;24.786;2023-08-12T06:32:01;99675.22;;;24.01;100.00
7026;BME280;3554;42.132;24.786;2023-08-12T06:34:28;99672.69;;;24.38;100.00
7026;BME280;3554;42.132;24.786;2023-08-12T06:36:56;99669.97;;;25.22;100.00
7026;BME280;3554;42.132;24.786;2023-08-12T06:39:23;99689.81;;;25.76;100.00
7026;BME280;3554;42.132;24.786;2023-08-12T06:41:50;99692.38;;;25.95;100.00
7026;BME280;3554;42.132;24.786;2023-08-12T06:44:17;99690.94;;;25.73;100.00
7026;BME280;3554;42.132;24.786;2023-08-12T06:46:44;99684.53;;;26.01;100.00
7026;BME280;3554;42.132;24.786;2023-08-12T06:49:13;99696.78;;;26.31;100.00
7026;BME280;3554;42.132;24.786;2023-08-12T06:51:39;99699.00;;;26.35;100.00
7026;BME280;3554;42.132;24.786;2023-08-12T06:54:06;99691.28;;;26.32;100.00
7026;BME280;3554;42.132;24.786;2023-08-12T06:56:33;99695.63;;;26.33;100.00
7026;BME280;3554;42.132;24.786;2023-08-12T06:59:00;99691.31;;;26.58;100.00
7026;BME280;3554;42.132;24.786;2023-08-12T07:01:26;99690.50;;;26.22;100.00
7026;BME280;3554;42.132;24.786;2023-08-12T07:03:53;99660.06;;;26.14;100.00
7026;BME280;3554;42.132;24.786;2023-08-12T07:06:22;99687.19;;;26.28;100.00
7026;BME280;3554;42.132;24.786;2023-08-12T07:08:48;99690.78;;;26.55;100.00
7026;BME280;3554;42.132;24.786;2023-08-12T07:11:15;99688.00;;;26.64;100.00
7026;BME280;3554;42.132;24.786;2023-08-12T07:13:42;99681.59;;;26.57;100.00
7026;BME280;3554;42.132;24.786;2023-08-12T07:16:11;99690.25;;;26.51;100.00
7026;BME280;3554;42.132;24.786;2023-08-12T07:18:38;99685.56;;;26.53;100.00
7026;BME280;3554;42.132;24.786;2023-08-12T07:21:05;99689.25;;;26.52;100.00
7026;BME280;3554;42.132;24.786;2023-08-12T07:23:33;99649.63;;;26.54;100.00
7026;BME280;3554;42.132;24.786;2023-08-12T07:26:00;99682.59;;;26.99;100.00
7026;BME280;3554;42.132;24.786;2023-08-12T07:28:27;99670.53;;;27.03;100.00
7026;BME280;3554;42.132;24.786;2023-08-12T07:30:53;99685.53;;;27.14;100.00
7026;BME280;3554;42.132;24.786;2023-08-12T07:33:20;99679.09;;;27.07;100.00
7026;BME280;3554;42.132;24.786;2023-08-12T07:35:47;99683.88;;;27.21;100.00
7026;BME280;3554;42.132;24.786;2023-08-12T07:38:14;99678.50;;;27.21;100.00
7026;BME280;3554;42.132;24.786;2023-08-12T07:40:42;99666.97;;;27.28;100.00
7026;BME280;3554;42.132;24.786;2023-08-12T07:43:09;99680.97;;;27.40;100.00
7026;BME280;3554;42.132;24.786;2023-08-12T07:45:36;99679.06;;;27.58;100.00
7026;BME280;3554;42.132;24.786;2023-08-12T07:48:03;99671.72;;;27.76;100.00
7026;BME280;3554;42.132;24.786;2023-08-12T07:50:30;99680.38;;;27.96;100.00
7026;BME280;3554;42.132;24.786;2023-08-12T07:52:57;99675.94;;;27.79;100.00
7026;BME280;3554;42.132;24.786;2023-08-12T07:55:24;99678.19;;;28.07;100.00
7026;BME280;3554;42.132;24.786;2023-08-12T07:57:52;99684.81;;;28.21;100.00
7026;BME280;3554;42.132;24.786;2023-08-12T08:00:19;99666.81;;;28.21;99.83
7026;BME280;3554;42.132;24.786;2023-08-12T08:02:46;99675.03;;;28.36;99.78
7026;BME280;3554;42.132;24.786;2023-08-12T08:05:12;99670.84;;;28.17;100.00
7026;BME280;3554;42.132;24.786;2023-08-12T08:07:39;99671.31;;;28.13;100.00
7026;BME280;3554;42.132;24.786;2023-08-12T08:10:07;99668.13;;;28.17;100.00
7026;BME280;3554;42.132;24.786;2023-08-12T08:12:33;99668.44;;;28.06;100.00
7026;BME280;3554;42.132;24.786;2023-08-12T08:15:02;99671.63;;;27.94;100.00
7026;BME280;3554;42.132;24.786;2023-08-12T08:17:29;99672.53;;;28.26;100.00
7026;BME280;3554;42.132;24.786;2023-08-12T08:19:56;99663.44;;;28.19;96.81
7026;BME280;3554;42.132;24.786;2023-08-12T08:22:23;99664.25;;;28.12;98.88
7026;BME280;3554;42.132;24.786;2023-08-12T08:24:49;99649.28;;;28.41;99.04
7026;BME280;3554;42.132;24.786;2023-08-12T08:27:16;99663.78;;;28.73;95.44
7026;BME280;3554;42.132;24.786;2023-08-12T08:29:43;99664.06;;;29.02;94.77
7026;BME280;3554;42.132;24.786;2023-08-12T08:32:11;99666.25;;;29.22;87.89
7026;BME280;3554;42.132;24.786;2023-08-12T08:34:38;99662.03;;;29.20;90.40
7026;BME280;3554;42.132;24.786;2023-08-12T08:37:05;99659.47;;;29.34;86.85
7026;BME280;3554;42.132;24.786;2023-08-12T08:39:32;99660.75;;;29.46;82.34
7026;BME280;3554;42.132;24.786;2023-08-12T08:41:58;99650.75;;;29.24;88.76
7026;BME280;3554;42.132;24.786;2023-08-12T08:44:29;99653.28;;;29.18;89.03
7026;BME280;3554;42.132;24.786;2023-08-12T08:46:58;99651.81;;;28.83;86.70
7026;BME280;3554;42.132;24.786;2023-08-12T08:49:26;99648.94;;;28.85;86.13
7026;BME280;3554;42.132;24.786;2023-08-12T08:51:55;99644.94;;;28.57;88.48
7026;BME280;3554;42.132;24.786;2023-08-12T08:54:23;99642.75;;;28.60;86.10
7026;BME280;3554;42.132;24.786;2023-08-12T08:56:49;99643.69;;;28.99;90.02
7026;BME280;3554;42.132;24.786;2023-08-12T08:59:16;99652.47;;;29.01;83.07
7026;BME280;3554;42.132;24.786;2023-08-12T09:01:45;99617.81;;;28.42;84.31
7026;BME280;3554;42.132;24.786;2023-08-12T09:04:15;99634.97;;;28.73;86.18
7026;BME280;3554;42.132;24.786;2023-08-12T09:06:45;99637.00;;;28.87;86.37
7026;BME280;3554;42.132;24.786;2023-08-12T09:09:14;99633.63;;;28.85;88.95
7026;BME280;3554;42.132;24.786;2023-08-12T09:11:42;99634.25;;;29.11;82.02
7026;BME280;3554;42.132;24.786;2023-08-12T09:14:11;99609.91;;;28.65;83.74
7026;BME280;3554;42.132;24.786;2023-08-12T09:16:38;99601.63;;;28.66;82.71
7026;BME280;3554;42.132;24.786;2023-08-12T09:19:05;99618.75;;;28.89;81.20
7026;BME280;3554;42.132;24.786;2023-08-12T09:21:32;99626.84;;;28.89;78.64
7026;BME280;3554;42.132;24.786;2023-08-12T09:24:02;99614.72;;;28.93;82.69
7026;BME280;3554;42.132;24.786;2023-08-12T09:26:29;99610.72;;;28.81;80.44
7026;BME280;3554;42.132;24.786;2023-08-12T09:28:56;99605.69;;;28.70;78.92
7026;BME280;3554;42.132;24.786;2023-08-12T09:31:26;99610.44;;;28.60;79.68
7026;BME280;3554;42.132;24.786;2023-08-12T09:33:54;99611.72;;;28.88;76.84
7026;BME280;3554;42.132;24.786;2023-08-12T09:36:23;99600.38;;;28.93;78.16
7026;BME280;3554;42.132;24.786;2023-08-12T09:38:51;99605.91;;;29.07;75.12
7026;BME280;3554;42.132;24.786;2023-08-12T09:41:22;99600.31;;;29.25;74.46
7026;BME280;3554;42.132;24.786;2023-08-12T09:43:50;99594.03;;;29.32;76.85
7026;BME280;3554;42.132;24.786;2023-08-12T09:46:18;99587.41;;;29.43;74.15
7026;BME280;3554;42.132;24.786;2023-08-12T09:48:49;99598.72;;;29.77;76.09
7026;BME280;3554;42.132;24.786;2023-08-12T09:51:16;99595.47;;;29.82;74.02
7026;BME280;3554;42.132;24.786;2023-08-12T09:53:43;99593.31;;;30.00;73.82
7026;BME280;3554;42.132;24.786;2023-08-12T09:56:11;99591.66;;;29.99;72.08
7026;BME280;3554;42.132;24.786;2023-08-12T09:58:40;99579.28;;;29.82;73.97
7026;BME280;3554;42.132;24.786;2023-08-12T10:01:10;99590.22;;;29.58;74.88
7026;BME280;3554;42.132;24.786;2023-08-12T10:03:40;99566.41;;;29.30;73.90
7026;BME280;3554;42.132;24.786;2023-08-12T10:06:08;99574.78;;;29.43;74.92
7026;BME280;3554;42.132;24.786;2023-08-12T10:08:35;99576.25;;;29.15;73.25
7026;BME280;3554;42.132;24.786;2023-08-12T10:11:02;99562.16;;;29.36;74.44
7026;BME280;3554;42.132;24.786;2023-08-12T10:13:30;99555.50;;;29.55;73.30
7026;BME280;3554;42.132;24.786;2023-08-12T10:15:58;99564.19;;;29.73;73.28
7026;BME280;3554;42.132;24.786;2023-08-12T10:18:27;99566.63;;;30.05;73.03
7026;BME280;3554;42.132;24.786;2023-08-12T10:20:56;99561.03;;;30.29;73.80
7026;BME280;3554;42.132;24.786;2023-08-12T10:23:24;99565.25;;;30.31;70.45
7026;BME280;3554;42.132;24.786;2023-08-12T10:25:53;99549.19;;;30.30;71.65
7026;BME280;3554;42.132;24.786;2023-08-12T10:28:21;99560.69;;;30.46;70.71
7026;BME280;3554;42.132;24.786;2023-08-12T10:30:49;99557.91;;;30.17;66.68
7026;BME280;3554;42.132;24.786;2023-08-12T10:33:17;99559.06;;;30.00;66.69
7026;BME280;3554;42.132;24.786;2023-08-12T10:35:45;99549.69;;;30.11;64.52
7026;BME280;3554;42.132;24.786;2023-08-12T10:38:14;99544.59;;;29.93;65.87
7026;BME280;3554;42.132;24.786;2023-08-12T10:40:43;99559.84;;;30.09;65.14
7026;BME280;3554;42.132;24.786;2023-08-12T10:43:11;99553.59;;;29.86;64.22
7026;BME280;3554;42.132;24.786;2023-08-12T10:45:43;99550.47;;;29.97;62.24
7026;BME280;3554;42.132;24.786;2023-08-12T10:48:18;99537.41;;;30.08;63.76
7026;BME280;3554;42.132;24.786;2023-08-12T10:50:48;99546.16;;;30.33;63.71
7026;BME280;3554;42.132;24.786;2023-08-12T10:53:23;99516.84;;;29.85;61.52
7026;BME280;3554;42.132;24.786;2023-08-12T10:55:55;99543.56;;;29.94;62.13
7026;BME280;3554;42.132;24.786;2023-08-12T10:58:30;99542.34;;;30.05;63.51
7026;BME280;3554;42.132;24.786;2023-08-12T11:00:57;99522.31;;;30.14;65.35
7026;BME280;3554;42.132;24.786;2023-08-12T11:03:26;99525.16;;;29.98;64.56
7026;BME280;3554;42.132;24.786;2023-08-12T11:05:59;99527.06;;;30.34;62.01
7026;BME280;3554;42.132;24.786;2023-08-12T11:08:26;99527.56;;;30.67;61.38
7026;BME280;3554;42.132;24.786;2023-08-12T11:10:55;99517.47;;;30.76;56.93
7026;BME280;3554;42.132;24.786;2023-08-12T11:13:22;99516.28;;;30.93;58.75
7026;BME280;3554;42.132;24.786;2023-08-12T11:15:49;99473.19;;;30.62;61.14
7026;BME280;3554;42.132;24.786;2023-08-12T11:18:18;99501.81;;;30.57;61.72
7026;BME280;3554;42.132;24.786;2023-08-12T11:20:48;99513.47;;;30.20;62.36
7026;BME280;3554;42.132;24.786;2023-08-12T11:23:16;99505.34;;;30.05;62.62
7026;BME280;3554;42.132;24.786;2023-08-12T11:25:43;99499.13;;;30.42;63.32
7026;BME280;3554;42.132;24.786;2023-08-12T11:28:11;99502.41;;;30.81;60.43
7026;BME280;3554;42.132;24.786;2023-08-12T11:30:40;99482.69;;;30.29;62.60
7026;BME280;3554;42.132;24.786;2023-08-12T11:33:08;99512.81;;;30.18;60.25
7026;BME280;3554;42.132;24.786;2023-08-12T11:35:36;99513.00;;;30.16;57.58
7026;BME280;3554;42.132;24.786;2023-08-12T11:38:05;99506.56;;;30.40;60.50
7026;BME280;3554;42.132;24.786;2023-08-12T11:40:33;99494.31;;;30.81;57.16
7026;BME280;3554;42.132;24.786;2023-08-12T11:43:01;99486.44;;;30.72;60.45
7026;BME280;3554;42.132;24.786;2023-08-12T11:45:28;99480.09;;;30.65;58.61
7026;BME280;3554;42.132;24.786;2023-08-12T11:47:55;99491.75;;;30.94;58.33
7026;BME280;3554;42.132;24.786;2023-08-12T11:50:24;99493.47;;;30.81;59.64
7026;BME280;3554;42.132;24.786;2023-08-12T11:52:52;99498.75;;;30.89;60.33
7026;BME280;3554;42.132;24.786;2023-08-12T11:55:21;99492.22;;;30.98;57.75
7026;BME280;3554;42.132;24.786;2023-08-12T11:57:48;99474.72;;;31.29;58.54
7026;BME280;3554;42.132;24.786;2023-08-12T12:00:15;99474.81;;;31.21;56.20
7026;BME280;3554;42.132;24.786;2023-08-12T12:02:47;99461.72;;;30.89;58.83
7026;BME280;3554;42.132;24.786;2023-08-12T12:05:16;99483.28;;;30.83;59.88
7026;BME280;3554;42.132;24.786;2023-08-12T12:07:43;99466.69;;;30.86;61.41
7026;BME280;3554;42.132;24.786;2023-08-12T12:10:13;99479.66;;;30.90;61.00
7026;BME280;3554;42.132;24.786;2023-08-12T12:12:44;99476.09;;;30.61;59.85
7026;BME280;3554;42.132;24.786;2023-08-12T12:15:12;99458.09;;;30.97;58.54
7026;BME280;3554;42.132;24.786;2023-08-12T12:17:39;99481.72;;;31.24;56.65
7026;BME280;3554;42.132;24.786;2023-08-12T12:20:07;99465.47;;;31.60;57.86
7026;BME280;3554;42.132;24.786;2023-08-12T12:22:36;99456.69;;;31.01;60.10
7026;BME280;3554;42.132;24.786;2023-08-12T12:25:06;99441.78;;;30.90;61.93
7026;BME280;3554;42.132;24.786;2023-08-12T12:27:33;99444.59;;;31.18;63.07
7026;BME280;3554;42.132;24.786;2023-08-12T12:30:02;99447.44;;;31.10;61.41
7026;BME280;3554;42.132;24.786;2023-08-12T12:32:29;99448.00;;;31.41;58.25
7026;BME280;3554;42.132;24.786;2023-08-12T12:34:55;99443.66;;;31.68;57.32
7026;BME280;3554;42.132;24.786;2023-08-12T12:37:22;99452.63;;;32.17;55.56
7026;BME280;3554;42.132;24.786;2023-08-12T12:39:49;99462.31;;;31.77;56.07
7026;BME280;3554;42.132;24.786;2023-08-12T12:42:16;99450.03;;;31.60;57.63
7026;BME280;3554;42.132;24.786;2023-08-12T12:44:43;99453.34;;;31.34;60.56
7026;BME280;3554;42.132;24.786;2023-08-12T12:47:11;99456.50;;;31.02;61.74
7026;BME280;3554;42.132;24.786;2023-08-12T12:49:38;99462.31;;;30.85;60.02
7026;BME280;3554;42.132;24.786;2023-08-12T12:52:06;99447.28;;;30.82;62.25
7026;BME280;3554;42.132;24.786;2023-08-12T12:54:33;99446.75;;;30.87;59.33
7026;BME280;3554;42.132;24.786;2023-08-12T12:57:00;99458.22;;;30.45;61.51
7026;BME280;3554;42.132;24.786;2023-08-12T12:59:29;99434.91;;;30.29;63.49
7026;BME280;3554;42.132;24.786;2023-08-12T13:01:55;99441.78;;;30.61;58.56
7026;BME280;3554;42.132;24.786;2023-08-12T13:04:24;99437.97;;;30.56;58.26
7026;BME280;3554;42.132;24.786;2023-08-12T13:06:50;99408.16;;;30.49;58.22